Time;durP1;ratioP1;P1;durP2;ratioP2;P2;SDS_P1;SDS_P2;PMS_P1;PMS_P2;Temp;Humidity;BMP_temperature;BMP_pressure;BME280_temperature;BME280_humidity;BME280_pressure;Samples;Min_cycle;Max_cycle;Signal;HPM_P1;HPM_P2
2022/10/31 00:02:08;;;;;;;9.10;7.20;;;10.40;99.90;;;;;;5057543;28;20187;-73
2022/10/31 00:04:33;;;;;;;14.35;8.48;;;10.40;99.90;;;;;;5058971;28;20531;-73
2022/10/31 00:06:59;;;;;;;11.18;7.25;;;10.40;99.90;;;;;;5059617;28;20196;-73
2022/10/31 00:09:25;;;;;;;8.43;7.53;;;10.40;99.90;;;;;;5063463;28;20229;-73
2022/10/31 00:11:50;;;;;;;11.45;8.40;;;10.30;99.90;;;;;;5058479;28;20184;-74
2022/10/31 00:14:16;;;;;;;9.90;7.88;;;10.30;99.90;;;;;;5061740;28;20262;-74
2022/10/31 00:16:41;;;;;;;11.82;8.10;;;10.30;99.90;;;;;;5062389;28;20603;-73
2022/10/31 00:19:07;;;;;;;10.10;7.95;;;10.20;99.90;;;;;;5056867;28;20204;-72
2022/10/31 00:21:34;;;;;;;10.13;7.05;;;10.10;99.90;;;;;;5058892;28;20190;-73
2022/10/31 00:24:00;;;;;;;10.07;7.18;;;10.10;99.90;;;;;;5058351;28;20171;-73
2022/10/31 00:26:30;;;;;;;10.88;8.15;;;10.10;99.90;;;;;;5064471;28;20242;-73
2022/10/31 00:28:57;;;;;;;9.15;7.85;;;10.10;99.90;;;;;;5064273;28;20271;-73
2022/10/31 00:31:23;;;;;;;8.32;7.30;;;10.20;99.90;;;;;;5066924;28;20215;-74
2022/10/31 00:33:49;;;;;;;8.55;7.35;;;10.10;99.90;;;;;;5064947;28;20654;-74
2022/10/31 00:36:18;;;;;;;13.35;8.13;;;10.20;99.90;;;;;;5064560;28;20211;-74
2022/10/31 00:38:45;;;;;;;10.82;7.25;;;10.20;99.90;;;;;;5065303;28;20212;-74
2022/10/31 00:41:12;;;;;;;11.13;7.50;;;10.10;99.90;;;;;;5065504;28;20188;-77
2022/10/31 00:43:38;;;;;;;11.75;8.18;;;10.10;99.90;;;;;;5070841;28;20228;-74
2022/10/31 00:46:04;;;;;;;8.15;7.32;;;10.10;99.90;;;;;;5063179;28;20203;-79
2022/10/31 00:48:30;;;;;;;8.85;6.97;;;10.10;99.90;;;;;;5067331;28;20175;-74
2022/10/31 00:50:56;;;;;;;9.13;7.00;;;10.10;99.90;;;;;;5067230;28;20294;-75
2022/10/31 00:53:22;;;;;;;8.52;7.18;;;10.10;99.90;;;;;;5070169;28;20552;-74
2022/10/31 00:55:47;;;;;;;10.55;7.00;;;10.10;99.90;;;;;;5061257;28;20707;-74
2022/10/31 00:58:13;;;;;;;8.40;7.43;;;10.00;99.90;;;;;;5063779;28;20207;-74
2022/10/31 01:00:39;;;;;;;10.32;7.93;;;9.90;99.90;;;;;;5062577;28;20183;-74
2022/10/31 01:03:05;;;;;;;10.30;7.63;;;9.90;99.90;;;;;;5063135;28;20224;-74
2022/10/31 01:05:30;;;;;;;11.27;7.47;;;9.80;99.90;;;;;;5064459;28;20293;-73
2022/10/31 01:07:56;;;;;;;10.70;7.28;;;9.80;99.90;;;;;;5067529;28;20198;-73
2022/10/31 01:10:22;;;;;;;13.23;8.13;;;9.70;99.90;;;;;;5060191;28;20248;-73
2022/10/31 01:12:49;;;;;;;8.13;6.93;;;9.70;99.90;;;;;;5061733;28;20210;-73
2022/10/31 01:15:18;;;;;;;8.90;7.32;;;9.70;99.90;;;;;;5062698;28;20186;-73
2022/10/31 01:17:43;;;;;;;7.88;7.07;;;9.70;99.90;;;;;;5058545;28;20538;-73
2022/10/31 01:20:11;;;;;;;9.05;7.50;;;9.70;99.90;;;;;;5059009;28;20250;-73
2022/10/31 01:22:36;;;;;;;9.80;7.50;;;9.60;99.90;;;;;;5057549;28;20172;-75
2022/10/31 01:25:02;;;;;;;8.20;7.03;;;9.60;99.90;;;;;;5062708;28;20217;-73
2022/10/31 01:27:28;;;;;;;8.23;6.68;;;9.50;99.90;;;;;;5063587;28;20199;-73
2022/10/31 01:29:54;;;;;;;8.13;7.30;;;9.60;99.90;;;;;;5064038;28;20272;-73
2022/10/31 01:32:20;;;;;;;9.10;7.75;;;9.50;99.90;;;;;;5064874;28;20207;-73
2022/10/31 01:34:45;;;;;;;10.93;7.35;;;9.60;99.90;;;;;;5058627;28;20198;-72
2022/10/31 01:37:11;;;;;;;10.18;7.38;;;9.50;99.90;;;;;;5057555;28;20235;-72
2022/10/31 01:39:37;;;;;;;7.82;7.00;;;9.50;99.90;;;;;;5069187;28;20226;-73
2022/10/31 01:42:02;;;;;;;8.90;7.53;;;9.50;99.90;;;;;;5062670;28;20201;-72
2022/10/31 01:44:28;;;;;;;8.30;6.75;;;9.40;99.90;;;;;;5063279;28;20210;-73
2022/10/31 01:47:00;;;;;;;9.55;7.55;;;9.50;99.90;;;;;;5061827;28;20195;-72
2022/10/31 01:49:41;;;;;;;10.27;7.40;;;9.50;99.90;;;;;;5061535;28;20214;-73
2022/10/31 01:52:10;;;;;;;9.02;6.63;;;9.50;99.90;;;;;;5065067;28;20250;-73
2022/10/31 01:54:42;;;;;;;9.90;7.75;;;9.60;99.90;;;;;;5065681;28;20239;-73
2022/10/31 01:57:12;;;;;;;7.93;6.80;;;9.60;99.90;;;;;;5059106;28;20199;-73
2022/10/31 01:59:46;;;;;;;10.13;6.47;;;9.60;99.90;;;;;;5064837;28;20207;-73
2022/10/31 02:02:12;;;;;;;8.85;6.38;;;9.70;99.90;;;;;;5060445;28;20192;-73
2022/10/31 02:04:46;;;;;;;7.40;6.78;;;9.70;99.90;;;;;;5060975;28;20176;-73
2022/10/31 02:07:20;;;;;;;6.45;5.78;;;9.80;99.90;;;;;;5056817;28;20210;-73
2022/10/31 02:09:48;;;;;;;7.72;6.65;;;9.80;99.90;;;;;;5055951;28;20171;-73
2022/10/31 02:12:15;;;;;;;8.00;6.55;;;9.90;99.90;;;;;;5060162;28;20594;-72
2022/10/31 02:14:41;;;;;;;8.05;6.70;;;9.90;99.90;;;;;;5057263;28;20176;-73
2022/10/31 02:17:08;;;;;;;6.75;6.07;;;9.90;99.90;;;;;;5060038;28;20563;-73
2022/10/31 02:20:01;;;;;;;7.13;6.53;;;9.90;99.90;;;;;;5064582;28;20211;-73
2022/10/31 02:23:01;;;;;;;6.35;5.60;;;10.00;99.90;;;;;;5065561;28;20769;-73
2022/10/31 02:25:45;;;;;;;5.53;5.03;;;10.00;99.90;;;;;;5059850;28;20218;-76
2022/10/31 02:28:23;;;;;;;5.60;5.20;;;10.10;99.90;;;;;;5066466;28;20261;-73
2022/10/31 02:31:25;;;;;;;4.88;4.57;;;10.20;99.90;;;;;;5064614;28;20624;-73
2022/10/31 02:33:58;;;;;;;4.93;4.53;;;10.20;99.90;;;;;;5057456;28;20646;-73
2022/10/31 02:36:42;;;;;;;5.35;4.95;;;10.20;99.90;;;;;;5058207;28;20207;-73
2022/10/31 02:39:47;;;;;;;5.35;4.85;;;10.20;99.90;;;;;;5060726;28;20200;-73
2022/10/31 02:42:28;;;;;;;5.10;4.68;;;10.20;99.90;;;;;;5058331;28;20692;-74
2022/10/31 02:44:54;;;;;;;6.00;5.15;;;10.20;99.90;;;;;;5061146;28;20223;-73
2022/10/31 02:47:27;;;;;;;6.53;5.50;;;10.10;99.90;;;;;;5061438;28;20720;-73
2022/10/31 02:50:03;;;;;;;7.07;5.82;;;10.10;99.90;;;;;;5061724;28;20180;-73
2022/10/31 02:52:31;;;;;;;9.90;7.30;;;10.00;99.90;;;;;;5061092;28;20206;-73
2022/10/31 02:54:57;;;;;;;17.42;7.75;;;10.10;99.90;;;;;;5067133;28;20236;-72
2022/10/31 02:57:30;;;;;;;13.70;8.23;;;10.00;99.90;;;;;;5065958;28;20206;-72
2022/10/31 03:00:01;;;;;;;10.05;7.40;;;10.00;99.90;;;;;;5060532;28;20227;-73
2022/10/31 03:03:03;;;;;;;13.35;8.07;;;10.00;99.90;;;;;;5066900;28;20188;-73
2022/10/31 03:05:45;;;;;;;12.73;8.20;;;10.20;99.90;;;;;;5058688;28;20186;-73
2022/10/31 03:08:32;;;;;;;18.92;8.57;;;10.10;99.90;;;;;;5065013;28;20179;-73
2022/10/31 03:11:04;;;;;;;16.75;8.48;;;10.10;99.90;;;;;;5061081;28;20191;-74
2022/10/31 03:13:54;;;;;;;30.05;8.93;;;10.10;99.90;;;;;;5060580;28;20251;-73
2022/10/31 03:16:36;;;;;;;20.73;8.52;;;10.00;99.90;;;;;;5063471;28;20712;-72
2022/10/31 03:19:11;;;;;;;9.23;7.03;;;10.00;99.90;;;;;;5070066;28;20239;-73
2022/10/31 03:22:00;;;;;;;6.57;5.85;;;10.00;99.90;;;;;;5071374;28;20235;-73
2022/10/31 03:24:29;;;;;;;7.80;5.50;;;10.10;99.90;;;;;;5079158;28;20179;-73
2022/10/31 03:26:59;;;;;;;14.07;7.03;;;10.20;99.90;;;;;;5066007;28;20191;-73
2022/10/31 03:29:29;;;;;;;6.82;6.13;;;10.10;99.90;;;;;;5066534;28;20175;-72
2022/10/31 03:32:00;;;;;;;9.35;6.57;;;10.10;99.90;;;;;;5074470;28;20240;-73
2022/10/31 03:34:28;;;;;;;6.80;6.10;;;10.10;99.90;;;;;;5069952;28;20218;-73
2022/10/31 03:36:58;;;;;;;11.15;7.10;;;10.00;99.90;;;;;;5072998;28;20670;-72
2022/10/31 03:39:25;;;;;;;8.70;6.85;;;10.00;99.90;;;;;;5075705;28;20735;-72
2022/10/31 03:42:00;;;;;;;7.75;6.97;;;10.00;99.90;;;;;;5081999;28;20185;-72
2022/10/31 03:44:29;;;;;;;9.70;7.07;;;10.00;99.90;;;;;;5076117;28;20212;-72
2022/10/31 03:46:54;;;;;;;8.65;6.63;;;10.00;99.90;;;;;;5073991;28;20581;-72
2022/10/31 03:49:21;;;;;;;10.35;6.63;;;10.00;99.90;;;;;;5078652;28;20183;-72
2022/10/31 03:51:52;;;;;;;7.78;6.97;;;10.00;99.90;;;;;;5071483;28;20190;-72
2022/10/31 03:54:29;;;;;;;9.82;7.47;;;9.90;99.90;;;;;;5062770;28;20530;-72
2022/10/31 03:57:16;;;;;;;17.73;7.50;;;10.00;99.90;;;;;;5060633;28;20708;-73
2022/10/31 03:59:47;;;;;;;12.05;7.35;;;10.00;99.90;;;;;;5060664;28;20597;-72
2022/10/31 04:02:18;;;;;;;8.68;7.35;;;10.00;99.90;;;;;;5058745;28;20179;-72
2022/10/31 04:04:46;;;;;;;9.07;7.40;;;9.90;99.90;;;;;;5062528;28;20187;-73
2022/10/31 04:07:13;;;;;;;7.15;6.55;;;9.90;99.90;;;;;;5058631;28;20413;-72
2022/10/31 04:09:43;;;;;;;13.25;7.25;;;9.90;99.90;;;;;;5057628;28;20207;-73
2022/10/31 04:12:11;;;;;;;6.93;6.22;;;9.90;99.90;;;;;;5058221;28;20176;-73
2022/10/31 04:14:39;;;;;;;7.13;6.43;;;9.90;99.90;;;;;;5065785;28;20650;-73
2022/10/31 04:17:11;;;;;;;11.43;6.75;;;9.90;99.90;;;;;;5059695;28;20213;-72
2022/10/31 04:19:36;;;;;;;11.63;6.40;;;9.90;99.90;;;;;;5058856;28;20714;-74
2022/10/31 04:22:02;;;;;;;11.50;5.68;;;9.90;99.90;;;;;;5058267;28;20183;-72
2022/10/31 04:24:28;;;;;;;5.82;5.35;;;9.80;99.90;;;;;;5059073;28;20171;-73
2022/10/31 04:26:53;;;;;;;8.57;5.63;;;9.90;99.90;;;;;;5060097;28;20203;-73
2022/10/31 04:29:19;;;;;;;10.73;5.80;;;9.80;99.90;;;;;;5059998;28;20266;-73
2022/10/31 04:31:45;;;;;;;11.40;5.80;;;9.80;99.90;;;;;;5054547;28;20211;-73
2022/10/31 04:34:10;;;;;;;6.57;4.40;;;9.80;99.90;;;;;;5063794;28;20202;-75
2022/10/31 04:36:36;;;;;;;5.10;3.97;;;9.80;99.90;;;;;;5063678;28;20239;-75
2022/10/31 04:39:02;;;;;;;4.68;4.28;;;9.70;99.90;;;;;;5061142;28;20195;-75
2022/10/31 04:41:27;;;;;;;8.60;3.70;;;9.60;99.90;;;;;;5060716;28;20723;-74
2022/10/31 04:43:53;;;;;;;4.32;3.92;;;9.50;99.90;;;;;;5055603;28;20693;-75
2022/10/31 04:46:18;;;;;;;4.57;4.18;;;9.40;99.90;;;;;;5058024;28;20392;-75
2022/10/31 04:48:44;;;;;;;4.97;4.15;;;9.30;99.90;;;;;;5054131;28;20633;-74
2022/10/31 04:51:10;;;;;;;4.60;4.35;;;9.20;99.90;;;;;;5057923;28;20175;-75
2022/10/31 04:53:35;;;;;;;3.95;3.63;;;9.10;99.90;;;;;;5053872;28;20194;-75
2022/10/31 04:56:01;;;;;;;4.18;3.83;;;9.00;99.90;;;;;;5053774;28;21069;-78
2022/10/31 04:58:27;;;;;;;4.35;4.05;;;8.90;99.90;;;;;;5055425;28;20202;-75
2022/10/31 05:00:53;;;;;;;4.00;3.70;;;8.90;99.90;;;;;;5059609;28;20176;-75
2022/10/31 05:03:19;;;;;;;5.03;4.45;;;8.80;99.90;;;;;;5061405;28;20191;-75
2022/10/31 05:05:45;;;;;;;4.40;4.10;;;8.70;99.90;;;;;;5054872;28;20210;-75
2022/10/31 05:08:10;;;;;;;4.20;3.90;;;8.80;99.90;;;;;;5057780;28;20198;-76
2022/10/31 05:10:36;;;;;;;7.07;5.03;;;8.70;99.90;;;;;;5062988;28;20496;-75
2022/10/31 05:13:03;;;;;;;4.47;4.07;;;8.80;99.90;;;;;;5075451;28;20167;-75
2022/10/31 05:15:29;;;;;;;10.68;4.95;;;8.80;99.90;;;;;;5069285;28;20190;-75
2022/10/31 05:17:55;;;;;;;4.70;4.40;;;8.80;99.90;;;;;;5069030;28;20187;-75
2022/10/31 05:20:24;;;;;;;6.53;5.05;;;8.80;99.90;;;;;;5056758;28;20669;-75
2022/10/31 05:22:53;;;;;;;4.35;4.05;;;8.80;99.90;;;;;;5053502;28;20244;-75
2022/10/31 05:25:20;;;;;;;5.57;4.60;;;8.90;99.90;;;;;;5054408;28;20207;-75
2022/10/31 05:27:47;;;;;;;8.07;4.30;;;8.90;99.90;;;;;;5053798;28;20238;-75
2022/10/31 05:30:15;;;;;;;7.82;4.82;;;8.90;99.90;;;;;;5061434;28;20225;-75
2022/10/31 05:32:45;;;;;;;12.27;5.20;;;8.90;99.90;;;;;;5058540;28;20171;-75
2022/10/31 05:35:14;;;;;;;18.60;5.32;;;9.00;99.90;;;;;;5058092;28;20271;-75
2022/10/31 05:37:40;;;;;;;7.40;4.38;;;9.00;99.90;;;;;;5054673;28;20647;-74
2022/10/31 05:40:08;;;;;;;17.40;5.40;;;9.00;99.90;;;;;;5056180;28;20214;-74
2022/10/31 05:42:33;;;;;;;4.50;4.20;;;9.10;99.90;;;;;;5058949;28;20198;-75
2022/10/31 05:44:59;;;;;;;17.10;5.43;;;9.10;99.90;;;;;;5065173;28;20354;-74
2022/10/31 05:47:25;;;;;;;7.13;4.60;;;9.20;99.90;;;;;;5053448;28;20203;-73
2022/10/31 05:49:51;;;;;;;25.08;6.35;;;9.20;99.90;;;;;;5052050;28;20262;-73
2022/10/31 05:52:16;;;;;;;11.02;4.88;;;9.30;99.90;;;;;;5056480;28;20197;-73
2022/10/31 05:54:42;;;;;;;22.67;6.43;;;9.30;99.90;;;;;;5064256;28;20179;-73
2022/10/31 05:57:08;;;;;;;19.13;6.65;;;9.20;99.90;;;;;;5059861;28;20308;-74
2022/10/31 05:59:33;;;;;;;5.50;5.00;;;9.20;99.90;;;;;;5055783;28;20662;-75
2022/10/31 06:01:59;;;;;;;29.48;7.75;;;9.20;99.90;;;;;;5056125;28;20611;-75
2022/10/31 06:04:24;;;;;;;7.22;4.97;;;9.30;99.90;;;;;;5064662;28;20511;-74
2022/10/31 06:06:50;;;;;;;16.23;6.05;;;9.30;99.90;;;;;;5061767;28;20658;-76
2022/10/31 06:09:16;;;;;;;13.82;5.97;;;9.20;99.90;;;;;;5058106;28;20236;-74
2022/10/31 06:11:41;;;;;;;19.65;6.43;;;9.20;99.90;;;;;;5057389;28;20262;-74
2022/10/31 06:14:07;;;;;;;7.13;5.75;;;9.10;99.90;;;;;;5066399;28;20542;-74
2022/10/31 06:16:33;;;;;;;9.73;5.70;;;9.20;99.90;;;;;;5058233;28;20199;-74
2022/10/31 06:18:58;;;;;;;9.90;5.97;;;9.30;99.90;;;;;;5059196;28;20206;-74
2022/10/31 06:21:24;;;;;;;17.67;6.50;;;9.20;99.90;;;;;;5060087;28;20313;-75
2022/10/31 06:23:50;;;;;;;19.50;6.45;;;9.30;99.90;;;;;;5062529;28;20581;-77
2022/10/31 06:26:15;;;;;;;11.15;5.68;;;9.30;99.90;;;;;;5065419;28;20276;-74
2022/10/31 06:28:41;;;;;;;17.38;5.25;;;9.40;99.90;;;;;;5063006;28;20201;-75
2022/10/31 06:31:07;;;;;;;12.60;5.60;;;9.40;99.90;;;;;;5057117;28;20291;-75
2022/10/31 06:33:33;;;;;;;18.60;5.20;;;9.40;99.90;;;;;;5055763;28;20590;-74
2022/10/31 06:35:59;;;;;;;4.35;4.05;;;9.50;99.90;;;;;;5060142;28;20195;-77
2022/10/31 06:38:26;;;;;;;5.00;4.35;;;9.50;99.90;;;;;;5058945;28;20290;-74
2022/10/31 06:40:52;;;;;;;9.07;5.18;;;9.60;99.90;;;;;;5056901;28;20180;-74
2022/10/31 06:43:17;;;;;;;23.55;5.28;;;9.70;99.90;;;;;;5057791;28;20237;-74
2022/10/31 06:45:43;;;;;;;7.85;5.15;;;9.60;99.90;;;;;;5056999;28;20278;-75
2022/10/31 06:48:21;;;;;;;7.63;4.63;;;9.70;99.90;;;;;;5058531;28;22293;-75
2022/10/31 06:50:47;;;;;;;6.80;5.10;;;9.80;99.90;;;;;;5056952;28;20179;-72
2022/10/31 06:53:14;;;;;;;8.95;5.45;;;9.90;99.90;;;;;;5063521;28;20705;-75
2022/10/31 06:55:40;;;;;;;9.52;5.25;;;10.00;99.90;;;;;;5061936;28;20200;-75
2022/10/31 06:58:06;;;;;;;5.13;4.70;;;10.10;99.90;;;;;;5060688;28;20180;-75
2022/10/31 07:00:34;;;;;;;8.18;5.70;;;10.20;99.90;;;;;;5061694;28;20646;-77
2022/10/31 07:03:11;;;;;;;8.05;5.70;;;10.40;99.90;;;;;;5061896;28;20178;-74
2022/10/31 07:05:37;;;;;;;7.47;5.90;;;10.40;99.90;;;;;;5065616;28;20195;-74
2022/10/31 07:08:06;;;;;;;9.60;5.50;;;10.40;99.90;;;;;;5065239;28;20184;-74
2022/10/31 07:10:33;;;;;;;18.65;6.07;;;10.50;99.90;;;;;;5058362;28;20217;-74
2022/10/31 07:13:09;;;;;;;7.13;5.72;;;10.50;99.90;;;;;;5059796;28;20271;-74
2022/10/31 07:15:37;;;;;;;6.88;5.55;;;10.70;99.90;;;;;;5058400;28;20207;-74
2022/10/31 07:18:04;;;;;;;6.22;5.55;;;10.90;99.90;;;;;;5064175;28;20221;-74
2022/10/31 07:20:31;;;;;;;8.82;5.03;;;10.90;99.90;;;;;;5073550;28;20225;-74
2022/10/31 07:22:57;;;;;;;19.77;5.40;;;11.00;99.90;;;;;;5059935;28;20187;-75
2022/10/31 07:25:23;;;;;;;11.85;6.10;;;11.00;99.90;;;;;;5060518;28;20626;-75
2022/10/31 07:27:49;;;;;;;17.67;5.40;;;11.00;99.90;;;;;;5057732;28;20184;-76
2022/10/31 07:30:16;;;;;;;7.80;4.97;;;11.10;99.90;;;;;;5059474;28;20187;-75
2022/10/31 07:32:43;;;;;;;6.50;4.45;;;11.20;99.90;;;;;;5061402;28;20176;-74
2022/10/31 07:35:11;;;;;;;9.93;5.00;;;11.30;99.90;;;;;;5064387;28;20605;-75
2022/10/31 07:37:37;;;;;;;12.95;4.50;;;11.30;99.90;;;;;;5059648;28;20195;-74
2022/10/31 07:40:07;;;;;;;11.27;5.38;;;11.30;99.90;;;;;;5059016;28;20207;-74
2022/10/31 07:42:47;;;;;;;7.38;4.65;;;11.30;99.90;;;;;;5061275;28;20232;-75
2022/10/31 07:45:16;;;;;;;14.05;5.90;;;11.50;99.90;;;;;;5065327;28;20191;-75
2022/10/31 07:47:44;;;;;;;7.78;4.57;;;11.60;99.90;;;;;;5065362;28;20180;-76
2022/10/31 07:50:12;;;;;;;10.63;5.53;;;11.60;99.90;;;;;;5060367;28;20184;-74
2022/10/31 07:52:38;;;;;;;6.18;5.35;;;11.70;99.90;;;;;;5064119;28;20183;-75
2022/10/31 07:55:04;;;;;;;12.88;5.38;;;11.80;99.90;;;;;;5067301;28;20180;-74
2022/10/31 07:57:30;;;;;;;14.10;6.00;;;11.90;99.90;;;;;;5067171;28;20235;-75
2022/10/31 07:59:55;;;;;;;6.30;5.13;;;11.90;99.90;;;;;;5061102;28;20239;-79
2022/10/31 08:02:21;;;;;;;4.95;4.57;;;11.90;99.90;;;;;;5067562;28;20171;-76
2022/10/31 08:04:46;;;;;;;6.82;5.00;;;12.00;99.90;;;;;;5059904;28;20635;-74
2022/10/31 08:07:12;;;;;;;12.02;5.72;;;12.20;99.90;;;;;;5060841;28;20203;-75
2022/10/31 08:09:38;;;;;;;5.00;4.53;;;12.20;99.90;;;;;;5057770;28;20184;-76
2022/10/31 08:12:04;;;;;;;18.70;5.00;;;12.30;99.90;;;;;;5064314;28;20183;-76
2022/10/31 08:14:29;;;;;;;7.88;5.20;;;12.30;99.90;;;;;;5067660;28;20171;-76
2022/10/31 08:16:55;;;;;;;10.73;5.13;;;12.40;99.90;;;;;;5066976;28;20203;-75
2022/10/31 08:19:21;;;;;;;6.95;5.45;;;12.60;99.90;;;;;;5070384;28;20203;-76
2022/10/31 08:21:46;;;;;;;5.47;4.82;;;12.70;99.90;;;;;;5068674;28;20542;-76
2022/10/31 08:24:12;;;;;;;11.68;5.60;;;12.80;99.90;;;;;;5072441;28;20255;-76
2022/10/31 08:26:38;;;;;;;9.00;5.10;;;12.90;99.90;;;;;;5068841;28;20219;-76
2022/10/31 08:29:04;;;;;;;6.10;5.50;;;13.00;99.90;;;;;;5070884;28;20183;-76
2022/10/31 08:31:30;;;;;;;8.88;6.60;;;13.10;99.90;;;;;;5069815;28;20666;-78
2022/10/31 08:33:56;;;;;;;11.02;7.32;;;13.10;99.90;;;;;;5070625;28;20187;-76
2022/10/31 08:36:21;;;;;;;7.85;6.60;;;13.10;99.90;;;;;;5068237;28;20223;-76
2022/10/31 08:38:48;;;;;;;9.95;5.72;;;13.10;99.90;;;;;;5070849;28;20294;-76
2022/10/31 08:41:14;;;;;;;6.60;5.60;;;13.10;99.90;;;;;;5069297;28;20183;-76
2022/10/31 08:43:39;;;;;;;5.68;5.00;;;13.20;99.90;;;;;;5071309;28;20186;-76
2022/10/31 08:46:05;;;;;;;6.57;5.00;;;13.30;99.90;;;;;;5075173;28;20606;-76
2022/10/31 08:48:31;;;;;;;6.50;5.20;;;13.30;99.90;;;;;;5068747;28;20224;-76
2022/10/31 08:50:58;;;;;;;8.68;4.75;;;13.30;99.90;;;;;;5067877;28;20184;-76
2022/10/31 08:53:25;;;;;;;7.65;5.60;;;13.00;99.90;;;;;;5077764;28;20710;-76
2022/10/31 08:55:50;;;;;;;8.68;6.00;;;13.10;99.90;;;;;;5068772;28;20249;-76
2022/10/31 08:58:18;;;;;;;10.20;5.32;;;13.10;99.90;;;;;;5067190;28;20179;-76
2022/10/31 09:00:45;;;;;;;8.65;5.68;;;13.00;99.90;;;;;;5071353;28;20188;-76
2022/10/31 09:03:13;;;;;;;6.38;5.75;;;13.10;99.90;;;;;;5069703;28;20216;-75
2022/10/31 09:05:39;;;;;;;6.45;5.95;;;13.20;99.90;;;;;;5064694;28;20197;-76
2022/10/31 09:08:06;;;;;;;7.28;6.30;;;13.40;99.90;;;;;;5068098;28;20187;-76
2022/10/31 09:10:33;;;;;;;7.25;6.47;;;13.60;99.90;;;;;;5068872;28;20760;-76
2022/10/31 09:13:08;;;;;;;7.88;6.03;;;13.80;99.90;;;;;;5070953;28;20187;-75
2022/10/31 09:15:36;;;;;;;5.60;5.10;;;13.90;99.90;;;;;;5068813;28;20205;-74
2022/10/31 09:18:02;;;;;;;6.88;6.28;;;14.10;99.90;;;;;;5074081;28;20179;-76
2022/10/31 09:20:28;;;;;;;7.20;6.32;;;14.10;99.90;;;;;;5072370;28;20211;-74
2022/10/31 09:23:05;;;;;;;7.68;6.90;;;14.00;99.90;;;;;;5079162;28;20185;-75
2022/10/31 09:25:33;;;;;;;6.00;5.40;;;14.00;99.90;;;;;;5072244;28;20220;-75
2022/10/31 09:28:00;;;;;;;7.63;6.93;;;14.30;99.90;;;;;;5071218;28;20255;-74
2022/10/31 09:30:29;;;;;;;8.52;5.95;;;14.40;99.90;;;;;;5062728;28;20188;-75
2022/10/31 09:33:00;;;;;;;7.10;6.47;;;14.30;99.90;;;;;;5069983;28;20188;-74
2022/10/31 09:35:25;;;;;;;7.68;6.00;;;14.40;99.90;;;;;;5069938;28;20183;-75
2022/10/31 09:38:01;;;;;;;5.88;5.40;;;14.60;99.90;;;;;;5066335;28;20258;-76
2022/10/31 09:40:37;;;;;;;7.00;6.40;;;14.60;99.90;;;;;;5072528;28;20217;-74
2022/10/31 09:43:39;;;;;;;7.15;6.50;;;14.60;99.90;;;;;;5070209;28;20254;-75
2022/10/31 09:46:20;;;;;;;6.95;6.22;;;14.70;99.90;;;;;;5069814;28;20225;-78
2022/10/31 09:49:24;;;;;;;13.20;6.68;;;15.00;99.90;;;;;;5068717;28;20176;-75
2022/10/31 09:52:02;;;;;;;7.25;6.55;;;15.10;99.90;;;;;;5064823;28;20197;-75
2022/10/31 09:55:01;;;;;;;7.30;6.10;;;15.10;99.90;;;;;;5067970;28;20602;-75
2022/10/31 09:57:34;;;;;;;9.38;7.32;;;15.10;99.90;;;;;;5059763;28;20206;-75
2022/10/31 10:00:00;;;;;;;8.35;7.55;;;14.80;99.90;;;;;;5068302;28;20661;-75
2022/10/31 10:02:32;;;;;;;10.07;6.80;;;14.80;99.90;;;;;;5070286;28;20178;-75
2022/10/31 10:05:10;;;;;;;9.57;7.45;;;14.80;99.90;;;;;;5062847;28;20199;-75
2022/10/31 10:07:46;;;;;;;8.23;7.43;;;14.90;99.90;;;;;;5069793;28;20202;-75
2022/10/31 10:10:22;;;;;;;7.20;6.60;;;15.10;99.90;;;;;;5066246;28;20187;-76
2022/10/31 10:13:19;;;;;;;18.42;7.40;;;15.20;99.90;;;;;;5070789;28;20179;-74
2022/10/31 10:16:03;;;;;;;9.43;7.45;;;15.10;99.90;;;;;;5057426;28;20208;-78
2022/10/31 10:18:28;;;;;;;9.65;8.65;;;15.20;99.90;;;;;;5057257;28;20207;-75
2022/10/31 10:21:22;;;;;;;8.75;7.85;;;15.30;99.90;;;;;;5056634;28;20194;-77
2022/10/31 10:24:19;;;;;;;8.10;7.30;;;15.40;99.90;;;;;;5055574;28;20175;-74
2022/10/31 10:27:29;;;;;;;8.77;8.02;;;15.60;99.90;;;;;;5063538;28;20210;-74
2022/10/31 10:30:15;;;;;;;9.88;8.88;;;15.70;99.90;;;;;;5066039;28;20201;-74
2022/10/31 10:32:50;;;;;;;9.43;8.52;;;15.80;99.90;;;;;;5063553;28;20236;-74
2022/10/31 10:35:34;;;;;;;10.27;9.32;;;15.80;99.90;;;;;;5068240;28;20228;-75
2022/10/31 10:38:07;;;;;;;10.23;9.27;;;16.00;99.90;;;;;;5066360;28;20175;-74
2022/10/31 10:40:34;;;;;;;10.23;9.18;;;16.10;99.90;;;;;;5063991;28;20221;-74
2022/10/31 10:43:23;;;;;;;10.77;9.68;;;16.20;99.90;;;;;;5068947;28;20179;-75
2022/10/31 10:49:31;;;;;;;9.27;8.38;;;16.20;99.90;;;;;;5057077;28;20559;-74
2022/10/31 10:52:19;;;;;;;14.23;10.18;;;16.20;99.90;;;;;;5058336;28;20266;-77
2022/10/31 10:55:01;;;;;;;12.48;11.18;;;16.10;99.90;;;;;;5065402;28;20182;-76
2022/10/31 10:57:46;;;;;;;12.88;11.57;;;16.40;99.90;;;;;;5061554;28;20203;-74
2022/10/31 11:00:21;;;;;;;14.15;11.27;;;16.50;99.90;;;;;;5059729;28;20199;-76
2022/10/31 11:02:47;;;;;;;13.32;11.95;;;16.60;99.90;;;;;;5056146;28;20248;-75
2022/10/31 11:05:23;;;;;;;12.98;11.50;;;16.60;99.90;;;;;;5059906;28;20706;-73
2022/10/31 11:07:48;;;;;;;13.57;12.13;;;16.70;99.90;;;;;;5059358;28;20175;-74
2022/10/31 11:10:15;;;;;;;13.13;11.75;;;16.80;99.90;;;;;;5061986;28;20318;-74
2022/10/31 11:12:43;;;;;;;11.45;10.35;;;17.00;99.90;;;;;;5063486;28;20182;-74
2022/10/31 11:15:23;;;;;;;11.82;10.52;;;17.30;99.90;;;;;;5059468;28;20180;-76
2022/10/31 11:17:52;;;;;;;12.18;10.95;;;17.50;99.90;;;;;;5061650;28;20555;-76
2022/10/31 11:20:18;;;;;;;13.68;11.32;;;17.60;99.90;;;;;;5070413;28;20292;-75
2022/10/31 11:22:45;;;;;;;12.10;9.80;;;17.80;99.90;;;;;;5070889;28;20218;-73
2022/10/31 11:25:21;;;;;;;14.02;11.30;;;17.90;99.90;;;;;;5055753;28;20180;-74
2022/10/31 11:27:58;;;;;;;12.48;11.18;;;18.00;99.90;;;;;;5072524;28;20539;-73
2022/10/31 11:30:23;;;;;;;13.32;11.93;;;18.30;99.90;;;;;;5072467;28;20677;-74
2022/10/31 11:32:52;;;;;;;13.93;12.25;;;18.50;99.90;;;;;;5069377;28;20186;-74
2022/10/31 11:35:20;;;;;;;11.82;10.65;;;18.70;99.90;;;;;;5076072;28;20181;-75
2022/10/31 11:37:50;;;;;;;13.38;11.98;;;19.10;99.90;;;;;;5061389;28;20194;-74
2022/10/31 11:40:24;;;;;;;12.90;11.55;;;19.40;99.90;;;;;;5063092;28;20207;-74
2022/10/31 11:42:52;;;;;;;13.07;11.80;;;19.30;99.90;;;;;;5060589;28;20250;-74
2022/10/31 11:45:23;;;;;;;13.32;12.13;;;19.10;99.90;;;;;;5059919;28;20240;-75
2022/10/31 11:47:51;;;;;;;13.82;12.38;;;19.00;99.90;;;;;;5076447;28;20273;-75
2022/10/31 11:50:38;;;;;;;13.15;11.85;;;18.90;99.90;;;;;;5058548;28;20180;-73
2022/10/31 11:53:12;;;;;;;13.68;12.25;;;18.80;99.90;;;;;;5059253;28;20205;-77
2022/10/31 11:55:39;;;;;;;14.32;11.82;;;19.30;99.90;;;;;;5069911;28;20206;-75
2022/10/31 11:58:25;;;;;;;13.25;11.93;;;19.60;99.90;;;;;;5063774;28;20653;-76
2022/10/31 12:00:54;;;;;;;12.80;11.50;;;20.70;99.90;;;;;;5060471;28;20230;-76
2022/10/31 12:03:22;;;;;;;12.45;11.00;;;21.30;99.90;;;;;;5063297;28;20198;-75
2022/10/31 12:06:11;;;;;;;12.90;11.60;;;22.50;99.90;;;;;;5057708;28;20218;-76
2022/10/31 12:08:40;;;;;;;11.73;10.63;;;23.80;99.90;;;;;;5062001;28;20210;-76
2022/10/31 12:11:42;;;;;;;12.25;10.98;;;24.60;99.90;;;;;;5057853;28;20184;-75
2022/10/31 12:14:17;;;;;;;12.13;11.00;;;25.20;99.90;;;;;;5058755;28;20191;-75
2022/10/31 12:16:48;;;;;;;12.02;10.93;;;24.80;99.20;;;;;;5058951;28;20206;-76
2022/10/31 12:19:32;;;;;;;12.32;11.13;;;24.20;99.30;;;;;;5063118;28;20210;-76
2022/10/31 12:22:03;;;;;;;13.45;11.02;;;23.80;99.40;;;;;;5058741;28;20175;-76
2022/10/31 12:25:02;;;;;;;13.82;10.23;;;23.70;99.90;;;;;;5063461;28;20507;-76
2022/10/31 12:27:31;;;;;;;13.00;11.48;;;23.90;99.60;;;;;;5072932;28;20199;-76
2022/10/31 12:30:23;;;;;;;13.27;11.90;;;23.90;99.30;;;;;;5062722;28;20179;-76
2022/10/31 12:33:16;;;;;;;12.68;11.13;;;23.90;98.50;;;;;;5061181;28;20224;-74
2022/10/31 12:36:15;;;;;;;13.55;11.82;;;23.60;98.60;;;;;;5064704;28;20268;-75
2022/10/31 12:38:44;;;;;;;12.80;11.32;;;22.90;99.60;;;;;;5058950;28;20273;-75
2022/10/31 12:41:49;;;;;;;12.98;11.68;;;22.40;99.90;;;;;;5059084;28;20232;-75
2022/10/31 12:44:29;;;;;;;14.57;12.50;;;22.10;99.90;;;;;;5059441;28;20646;-75
2022/10/31 12:47:07;;;;;;;13.68;12.35;;;21.90;99.90;;;;;;5061164;28;20211;-77
2022/10/31 12:49:38;;;;;;;16.00;12.50;;;21.60;99.90;;;;;;5056815;28;20186;-75
2022/10/31 12:52:18;;;;;;;14.77;13.18;;;21.30;99.90;;;;;;5056021;28;20702;-75
2022/10/31 12:55:03;;;;;;;13.35;12.07;;;20.90;99.90;;;;;;5058873;28;20237;-76
2022/10/31 12:57:38;;;;;;;15.35;13.85;;;20.60;99.90;;;;;;5059326;28;20683;-76
2022/10/31 13:00:17;;;;;;;14.65;13.13;;;20.30;99.90;;;;;;5059452;28;20294;-76
2022/10/31 13:02:58;;;;;;;16.92;14.27;;;20.20;99.90;;;;;;5058709;28;20193;-74
2022/10/31 13:05:31;;;;;;;15.80;14.10;;;20.10;99.90;;;;;;5055492;28;20243;-76
2022/10/31 13:08:03;;;;;;;16.70;13.30;;;20.10;99.90;;;;;;5054671;28;20176;-75